sensor_id;sensor_type;location;lat;lon;timestamp;temperature;humidity
17128;DHT22;8679;50.842;4.322;2022-07-23T00:01:31;17.00;99.90
17128;DHT22;8679;50.842;4.322;2022-07-23T00:03:57;17.00;99.90
17128;DHT22;8679;50.842;4.322;2022-07-23T00:06:24;16.90;99.90
17128;DHT22;8679;50.842;4.322;2022-07-23T00:08:50;16.90;99.90
17128;DHT22;8679;50.842;4.322;2022-07-23T00:11:16;16.90;99.90
17128;DHT22;8679;50.842;4.322;2022-07-23T00:13:42;16.90;99.90
17128;DHT22;8679;50.842;4.322;2022-07-23T00:16:08;16.80;99.90
17128;DHT22;8679;50.842;4.322;2022-07-23T00:18:34;16.80;99.90
17128;DHT22;8679;50.842;4.322;2022-07-23T00:21:00;16.80;99.90
17128;DHT22;8679;50.842;4.322;2022-07-23T00:23:26;16.70;99.90
17128;DHT22;8679;50.842;4.322;2022-07-23T00:25:53;16.70;99.90
17128;DHT22;8679;50.842;4.322;2022-07-23T00:28:19;16.70;99.90
17128;DHT22;8679;50.842;4.322;2022-07-23T00:30:45;16.70;99.90
17128;DHT22;8679;50.842;4.322;2022-07-23T00:33:11;16.60;99.90
17128;DHT22;8679;50.842;4.322;2022-07-23T00:35:38;16.60;99.90
17128;DHT22;8679;50.842;4.322;2022-07-23T00:38:10;16.60;99.90
17128;DHT22;8679;50.842;4.322;2022-07-23T00:40:36;16.50;99.90
17128;DHT22;8679;50.842;4.322;2022-07-23T00:43:03;16.50;99.90
17128;DHT22;8679;50.842;4.322;2022-07-23T00:45:30;16.50;99.90
17128;DHT22;8679;50.842;4.322;2022-07-23T00:47:56;16.50;99.90
17128;DHT22;8679;50.842;4.322;2022-07-23T00:50:22;16.50;99.90
17128;DHT22;8679;50.842;4.322;2022-07-23T00:52:47;16.50;99.90
17128;DHT22;8679;50.842;4.322;2022-07-23T00:55:13;16.40;99.90
17128;DHT22;8679;50.842;4.322;2022-07-23T00:57:40;16.50;99.90
17128;DHT22;8679;50.842;4.322;2022-07-23T01:00:08;16.40;99.90
17128;DHT22;8679;50.842;4.322;2022-07-23T01:02:34;16.40;99.90
17128;DHT22;8679;50.842;4.322;2022-07-23T01:04:59;16.40;99.90
17128;DHT22;8679;50.842;4.322;2022-07-23T01:07:25;16.40;99.90
17128;DHT22;8679;50.842;4.322;2022-07-23T01:09:51;16.40;99.90
17128;DHT22;8679;50.842;4.322;2022-07-23T01:12:18;16.30;99.90
17128;DHT22;8679;50.842;4.322;2022-07-23T01:14:43;16.30;99.90
17128;DHT22;8679;50.842;4.322;2022-07-23T01:17:09;16.30;99.90
17128;DHT22;8679;50.842;4.322;2022-07-23T01:19:35;16.30;99.90
17128;DHT22;8679;50.842;4.322;2022-07-23T01:22:03;16.30;99.90
17128;DHT22;8679;50.842;4.322;2022-07-23T01:24:29;16.20;99.90
17128;DHT22;8679;50.842;4.322;2022-07-23T01:26:55;16.20;99.90
17128;DHT22;8679;50.842;4.322;2022-07-23T01:29:21;16.20;99.90
17128;DHT22;8679;50.842;4.322;2022-07-23T01:31:48;16.20;99.90
17128;DHT22;8679;50.842;4.322;2022-07-23T01:34:14;16.20;99.90
17128;DHT22;8679;50.842;4.322;2022-07-23T01:36:39;16.20;99.90
17128;DHT22;8679;50.842;4.322;2022-07-23T01:39:06;16.10;99.90
17128;DHT22;8679;50.842;4.322;2022-07-23T01:41:33;16.10;99.90
17128;DHT22;8679;50.842;4.322;2022-07-23T01:43:59;16.10;99.90
17128;DHT22;8679;50.842;4.322;2022-07-23T01:46:24;16.10;99.90
17128;DHT22;8679;50.842;4.322;2022-07-23T01:48:50;16.10;99.90
17128;DHT22;8679;50.842;4.322;2022-07-23T01:51:16;16.10;99.90
17128;DHT22;8679;50.842;4.322;2022-07-23T01:53:42;16.10;99.90
17128;DHT22;8679;50.842;4.322;2022-07-23T01:56:08;16.10;99.90
17128;DHT22;8679;50.842;4.322;2022-07-23T01:58:33;16.00;99.90
17128;DHT22;8679;50.842;4.322;2022-07-23T02:00:59;16.00;99.90
17128;DHT22;8679;50.842;4.322;2022-07-23T02:03:26;16.00;99.90
17128;DHT22;8679;50.842;4.322;2022-07-23T02:05:52;16.00;99.90
17128;DHT22;8679;50.842;4.322;2022-07-23T02:08:18;16.00;99.90
17128;DHT22;8679;50.842;4.322;2022-07-23T02:10:44;16.00;99.90
17128;DHT22;8679;50.842;4.322;2022-07-23T02:13:09;16.00;99.90
17128;DHT22;8679;50.842;4.322;2022-07-23T02:15:35;15.90;99.90
17128;DHT22;8679;50.842;4.322;2022-07-23T02:18:01;15.90;99.90
17128;DHT22;8679;50.842;4.322;2022-07-23T02:20:27;15.90;99.90
17128;DHT22;8679;50.842;4.322;2022-07-23T02:22:52;15.90;99.90
17128;DHT22;8679;50.842;4.322;2022-07-23T02:25:18;15.90;99.90
17128;DHT22;8679;50.842;4.322;2022-07-23T02:27:44;15.80;99.90
17128;DHT22;8679;50.842;4.322;2022-07-23T02:30:10;15.80;99.90
17128;DHT22;8679;50.842;4.322;2022-07-23T02:32:36;15.80;99.90
17128;DHT22;8679;50.842;4.322;2022-07-23T02:35:03;15.80;99.90
17128;DHT22;8679;50.842;4.322;2022-07-23T02:37:28;15.80;99.90
17128;DHT22;8679;50.842;4.322;2022-07-23T02:39:54;15.80;99.90
17128;DHT22;8679;50.842;4.322;2022-07-23T02:42:20;15.80;99.90
17128;DHT22;8679;50.842;4.322;2022-07-23T02:44:46;15.70;99.90
17128;DHT22;8679;50.842;4.322;2022-07-23T02:47:12;15.70;99.90
17128;DHT22;8679;50.842;4.322;2022-07-23T02:49:38;15.70;99.90
17128;DHT22;8679;50.842;4.322;2022-07-23T02:52:04;15.70;99.90
17128;DHT22;8679;50.842;4.322;2022-07-23T02:54:29;15.70;99.90
17128;DHT22;8679;50.842;4.322;2022-07-23T02:56:55;15.70;99.90
17128;DHT22;8679;50.842;4.322;2022-07-23T02:59:21;15.70;99.90
17128;DHT22;8679;50.842;4.322;2022-07-23T03:01:47;15.70;99.90
17128;DHT22;8679;50.842;4.322;2022-07-23T03:04:12;15.70;99.90
17128;DHT22;8679;50.842;4.322;2022-07-23T03:06:39;15.60;99.90
17128;DHT22;8679;50.842;4.322;2022-07-23T03:09:05;15.60;99.90
17128;DHT22;8679;50.842;4.322;2022-07-23T03:11:31;15.60;99.90
17128;DHT22;8679;50.842;4.322;2022-07-23T03:13:57;15.50;99.90
17128;DHT22;8679;50.842;4.322;2022-07-23T03:16:23;15.50;99.90
17128;DHT22;8679;50.842;4.322;2022-07-23T03:18:48;15.50;99.90
17128;DHT22;8679;50.842;4.322;2022-07-23T03:21:14;15.50;99.90
17128;DHT22;8679;50.842;4.322;2022-07-23T03:23:40;15.40;99.90
17128;DHT22;8679;50.842;4.322;2022-07-23T03:26:06;15.50;99.90
17128;DHT22;8679;50.842;4.322;2022-07-23T03:28:31;15.40;99.90
17128;DHT22;8679;50.842;4.322;2022-07-23T03:30:57;15.50;99.90
17128;DHT22;8679;50.842;4.322;2022-07-23T03:33:23;15.40;99.90
17128;DHT22;8679;50.842;4.322;2022-07-23T03:35:50;15.50;99.90
17128;DHT22;8679;50.842;4.322;2022-07-23T03:38:15;15.40;99.90
17128;DHT22;8679;50.842;4.322;2022-07-23T03:40:41;15.50;99.90
17128;DHT22;8679;50.842;4.322;2022-07-23T03:43:07;15.50;99.90
17128;DHT22;8679;50.842;4.322;2022-07-23T03:45:33;15.40;99.90
17128;DHT22;8679;50.842;4.322;2022-07-23T03:47:59;15.50;99.90
17128;DHT22;8679;50.842;4.322;2022-07-23T03:50:25;15.40;99.90
17128;DHT22;8679;50.842;4.322;2022-07-23T03:52:51;15.40;99.90
17128;DHT22;8679;50.842;4.322;2022-07-23T03:55:17;15.50;99.90
17128;DHT22;8679;50.842;4.322;2022-07-23T03:57:43;15.50;99.90
17128;DHT22;8679;50.842;4.322;2022-07-23T04:00:10;15.50;99.90
17128;DHT22;8679;50.842;4.322;2022-07-23T04:02:37;15.50;99.90
17128;DHT22;8679;50.842;4.322;2022-07-23T04:05:03;15.60;99.90
17128;DHT22;8679;50.842;4.322;2022-07-23T04:07:30;15.60;99.90
17128;DHT22;8679;50.842;4.322;2022-07-23T04:09:56;15.60;99.90
17128;DHT22;8679;50.842;4.322;2022-07-23T04:12:21;15.60;99.90
17128;DHT22;8679;50.842;4.322;2022-07-23T04:14:47;15.70;99.90
17128;DHT22;8679;50.842;4.322;2022-07-23T04:17:13;15.70;99.90
17128;DHT22;8679;50.842;4.322;2022-07-23T04:19:38;15.70;99.90
17128;DHT22;8679;50.842;4.322;2022-07-23T04:22:12;15.70;99.90
17128;DHT22;8679;50.842;4.322;2022-07-23T04:24:38;15.70;99.90
17128;DHT22;8679;50.842;4.322;2022-07-23T04:27:04;15.70;99.90
17128;DHT22;8679;50.842;4.322;2022-07-23T04:29:30;15.70;99.90
17128;DHT22;8679;50.842;4.322;2022-07-23T04:31:55;15.70;99.90
17128;DHT22;8679;50.842;4.322;2022-07-23T04:34:21;15.80;99.90
17128;DHT22;8679;50.842;4.322;2022-07-23T04:36:47;15.80;99.90
17128;DHT22;8679;50.842;4.322;2022-07-23T04:39:13;15.80;99.90
17128;DHT22;8679;50.842;4.322;2022-07-23T04:41:39;15.80;99.90
17128;DHT22;8679;50.842;4.322;2022-07-23T04:44:05;15.80;99.90
17128;DHT22;8679;50.842;4.322;2022-07-23T04:46:30;15.80;99.90
17128;DHT22;8679;50.842;4.322;2022-07-23T04:48:56;15.90;99.90
17128;DHT22;8679;50.842;4.322;2022-07-23T04:51:22;16.00;99.90
17128;DHT22;8679;50.842;4.322;2022-07-23T04:53:47;16.00;99.90
17128;DHT22;8679;50.842;4.322;2022-07-23T04:56:13;16.10;99.90
17128;DHT22;8679;50.842;4.322;2022-07-23T04:58:39;16.20;99.90
17128;DHT22;8679;50.842;4.322;2022-07-23T05:01:05;16.30;99.90
17128;DHT22;8679;50.842;4.322;2022-07-23T05:03:30;16.30;99.90
17128;DHT22;8679;50.842;4.322;2022-07-23T05:05:56;16.40;99.90
17128;DHT22;8679;50.842;4.322;2022-07-23T05:08:22;16.50;99.90
17128;DHT22;8679;50.842;4.322;2022-07-23T05:10:48;16.60;99.90
17128;DHT22;8679;50.842;4.322;2022-07-23T05:13:17;16.60;99.90
17128;DHT22;8679;50.842;4.322;2022-07-23T05:15:44;16.80;99.90
17128;DHT22;8679;50.842;4.322;2022-07-23T05:18:09;16.80;99.90
17128;DHT22;8679;50.842;4.322;2022-07-23T05:20:35;16.90;99.90
17128;DHT22;8679;50.842;4.322;2022-07-23T05:23:01;16.90;99.90
17128;DHT22;8679;50.842;4.322;2022-07-23T05:25:27;17.00;99.90
17128;DHT22;8679;50.842;4.322;2022-07-23T05:27:52;17.00;99.90
17128;DHT22;8679;50.842;4.322;2022-07-23T05:30:18;17.00;99.90
17128;DHT22;8679;50.842;4.322;2022-07-23T05:32:44;17.00;99.90
17128;DHT22;8679;50.842;4.322;2022-07-23T05:35:10;17.00;99.90
17128;DHT22;8679;50.842;4.322;2022-07-23T05:37:36;17.00;99.90
17128;DHT22;8679;50.842;4.322;2022-07-23T05:40:06;17.00;99.90
17128;DHT22;8679;50.842;4.322;2022-07-23T05:42:34;17.00;99.90
17128;DHT22;8679;50.842;4.322;2022-07-23T05:44:59;17.00;99.90
17128;DHT22;8679;50.842;4.322;2022-07-23T05:47:25;17.00;99.90
17128;DHT22;8679;50.842;4.322;2022-07-23T05:49:51;16.90;99.90
17128;DHT22;8679;50.842;4.322;2022-07-23T05:52:16;16.90;99.90
17128;DHT22;8679;50.842;4.322;2022-07-23T05:54:42;16.90;99.90
17128;DHT22;8679;50.842;4.322;2022-07-23T05:57:08;16.90;99.90
17128;DHT22;8679;50.842;4.322;2022-07-23T05:59:34;17.00;99.90
17128;DHT22;8679;50.842;4.322;2022-07-23T06:01:59;17.00;99.90
17128;DHT22;8679;50.842;4.322;2022-07-23T06:04:25;17.10;99.90
17128;DHT22;8679;50.842;4.322;2022-07-23T06:06:51;17.10;99.90
17128;DHT22;8679;50.842;4.322;2022-07-23T06:09:16;17.10;99.90
17128;DHT22;8679;50.842;4.322;2022-07-23T06:11:42;17.20;99.90
17128;DHT22;8679;50.842;4.322;2022-07-23T06:14:08;17.30;99.90
17128;DHT22;8679;50.842;4.322;2022-07-23T06:16:33;17.30;99.90
17128;DHT22;8679;50.842;4.322;2022-07-23T06:18:59;17.40;99.90
17128;DHT22;8679;50.842;4.322;2022-07-23T06:21:24;17.50;99.90
17128;DHT22;8679;50.842;4.322;2022-07-23T06:23:50;17.50;99.90
17128;DHT22;8679;50.842;4.322;2022-07-23T06:26:16;17.60;99.90
17128;DHT22;8679;50.842;4.322;2022-07-23T06:28:41;17.70;99.90
17128;DHT22;8679;50.842;4.322;2022-07-23T06:31:07;17.70;99.90
17128;DHT22;8679;50.842;4.322;2022-07-23T06:33:33;17.80;99.90
17128;DHT22;8679;50.842;4.322;2022-07-23T06:35:59;17.90;99.90
17128;DHT22;8679;50.842;4.322;2022-07-23T06:38:25;18.00;99.90
17128;DHT22;8679;50.842;4.322;2022-07-23T06:40:51;18.00;99.90
17128;DHT22;8679;50.842;4.322;2022-07-23T06:43:16;18.10;99.90
17128;DHT22;8679;50.842;4.322;2022-07-23T06:45:42;18.20;99.90
17128;DHT22;8679;50.842;4.322;2022-07-23T06:48:08;18.30;99.90
17128;DHT22;8679;50.842;4.322;2022-07-23T06:50:34;18.30;99.90
17128;DHT22;8679;50.842;4.322;2022-07-23T06:53:00;18.40;99.90
17128;DHT22;8679;50.842;4.322;2022-07-23T06:55:25;18.50;99.90
17128;DHT22;8679;50.842;4.322;2022-07-23T06:57:51;18.60;99.90
17128;DHT22;8679;50.842;4.322;2022-07-23T07:00:17;18.60;99.90
17128;DHT22;8679;50.842;4.322;2022-07-23T07:02:42;18.70;99.90
17128;DHT22;8679;50.842;4.322;2022-07-23T07:05:08;18.70;99.90
17128;DHT22;8679;50.842;4.322;2022-07-23T07:07:34;18.80;99.90
17128;DHT22;8679;50.842;4.322;2022-07-23T07:10:01;18.80;99.90
17128;DHT22;8679;50.842;4.322;2022-07-23T07:12:26;18.80;99.90
17128;DHT22;8679;50.842;4.322;2022-07-23T07:14:52;18.80;99.90
17128;DHT22;8679;50.842;4.322;2022-07-23T07:17:19;18.90;99.90
17128;DHT22;8679;50.842;4.322;2022-07-23T07:19:44;19.00;99.90
17128;DHT22;8679;50.842;4.322;2022-07-23T07:22:10;19.10;99.90
17128;DHT22;8679;50.842;4.322;2022-07-23T07:24:36;19.10;99.90
17128;DHT22;8679;50.842;4.322;2022-07-23T07:27:01;19.20;99.90
17128;DHT22;8679;50.842;4.322;2022-07-23T07:29:27;19.30;99.90
17128;DHT22;8679;50.842;4.322;2022-07-23T07:31:53;19.30;99.90
17128;DHT22;8679;50.842;4.322;2022-07-23T07:34:19;19.40;99.90
17128;DHT22;8679;50.842;4.322;2022-07-23T07:36:45;19.50;99.90
17128;DHT22;8679;50.842;4.322;2022-07-23T07:39:10;19.60;99.90
17128;DHT22;8679;50.842;4.322;2022-07-23T07:41:36;19.70;99.90
17128;DHT22;8679;50.842;4.322;2022-07-23T07:44:02;19.80;99.90
17128;DHT22;8679;50.842;4.322;2022-07-23T07:46:27;19.80;99.90
17128;DHT22;8679;50.842;4.322;2022-07-23T07:48:54;19.80;99.90
17128;DHT22;8679;50.842;4.322;2022-07-23T07:51:19;19.80;99.90
17128;DHT22;8679;50.842;4.322;2022-07-23T07:53:45;19.90;99.90
17128;DHT22;8679;50.842;4.322;2022-07-23T07:56:11;19.90;99.90
17128;DHT22;8679;50.842;4.322;2022-07-23T07:58:36;20.00;99.90
17128;DHT22;8679;50.842;4.322;2022-07-23T08:01:02;20.10;99.90
17128;DHT22;8679;50.842;4.322;2022-07-23T08:03:28;20.10;99.90
17128;DHT22;8679;50.842;4.322;2022-07-23T08:05:54;20.20;99.90
17128;DHT22;8679;50.842;4.322;2022-07-23T08:08:20;20.20;99.90
17128;DHT22;8679;50.842;4.322;2022-07-23T08:10:45;20.40;99.90
17128;DHT22;8679;50.842;4.322;2022-07-23T08:13:15;20.40;99.90
17128;DHT22;8679;50.842;4.322;2022-07-23T08:15:41;20.50;99.90
17128;DHT22;8679;50.842;4.322;2022-07-23T08:18:08;20.50;99.90
17128;DHT22;8679;50.842;4.322;2022-07-23T08:20:34;20.60;99.90
17128;DHT22;8679;50.842;4.322;2022-07-23T08:23:06;20.60;99.90
17128;DHT22;8679;50.842;4.322;2022-07-23T08:25:38;20.60;99.90
17128;DHT22;8679;50.842;4.322;2022-07-23T08:28:10;20.70;99.90
17128;DHT22;8679;50.842;4.322;2022-07-23T08:30:37;20.80;99.90
17128;DHT22;8679;50.842;4.322;2022-07-23T08:33:06;20.80;99.90
17128;DHT22;8679;50.842;4.322;2022-07-23T08:35:35;20.80;99.90
17128;DHT22;8679;50.842;4.322;2022-07-23T08:38:04;20.90;99.90
17128;DHT22;8679;50.842;4.322;2022-07-23T08:40:32;21.00;99.90
17128;DHT22;8679;50.842;4.322;2022-07-23T08:42:58;21.00;99.90
17128;DHT22;8679;50.842;4.322;2022-07-23T08:45:27;21.00;99.90
17128;DHT22;8679;50.842;4.322;2022-07-23T08:47:55;21.10;99.90
17128;DHT22;8679;50.842;4.322;2022-07-23T08:50:22;21.20;99.90
17128;DHT22;8679;50.842;4.322;2022-07-23T08:52:49;21.20;99.90
17128;DHT22;8679;50.842;4.322;2022-07-23T08:55:20;21.10;99.90
17128;DHT22;8679;50.842;4.322;2022-07-23T08:57:51;21.10;99.90
17128;DHT22;8679;50.842;4.322;2022-07-23T09:00:18;21.20;99.90
17128;DHT22;8679;50.842;4.322;2022-07-23T09:02:45;21.30;99.90
17128;DHT22;8679;50.842;4.322;2022-07-23T09:05:12;21.50;99.90
17128;DHT22;8679;50.842;4.322;2022-07-23T09:08:20;21.70;99.90
17128;DHT22;8679;50.842;4.322;2022-07-23T09:10:59;21.80;99.90
17128;DHT22;8679;50.842;4.322;2022-07-23T09:16:15;22.10;99.90
17128;DHT22;8679;50.842;4.322;2022-07-23T09:18:50;22.20;99.90
17128;DHT22;8679;50.842;4.322;2022-07-23T09:21:19;22.10;99.90
17128;DHT22;8679;50.842;4.322;2022-07-23T09:23:48;22.00;99.90
17128;DHT22;8679;50.842;4.322;2022-07-23T09:26:26;22.20;99.90
17128;DHT22;8679;50.842;4.322;2022-07-23T09:28:53;22.30;99.90
17128;DHT22;8679;50.842;4.322;2022-07-23T09:31:20;22.40;99.90
17128;DHT22;8679;50.842;4.322;2022-07-23T09:33:45;22.40;99.90
17128;DHT22;8679;50.842;4.322;2022-07-23T09:36:11;22.50;99.90
17128;DHT22;8679;50.842;4.322;2022-07-23T09:38:49;22.50;99.90
17128;DHT22;8679;50.842;4.322;2022-07-23T09:41:15;22.50;99.90
17128;DHT22;8679;50.842;4.322;2022-07-23T09:43:41;22.50;99.90
17128;DHT22;8679;50.842;4.322;2022-07-23T09:46:22;22.60;99.90
17128;DHT22;8679;50.842;4.322;2022-07-23T09:48:55;22.80;99.90
17128;DHT22;8679;50.842;4.322;2022-07-23T09:51:24;22.90;99.90
17128;DHT22;8679;50.842;4.322;2022-07-23T09:54:02;23.00;99.90
17128;DHT22;8679;50.842;4.322;2022-07-23T09:56:28;23.10;99.90
17128;DHT22;8679;50.842;4.322;2022-07-23T09:58:54;23.10;99.90
17128;DHT22;8679;50.842;4.322;2022-07-23T10:01:35;23.00;99.90
17128;DHT22;8679;50.842;4.322;2022-07-23T10:04:01;23.10;99.90
17128;DHT22;8679;50.842;4.322;2022-07-23T10:06:28;23.00;99.90
17128;DHT22;8679;50.842;4.322;2022-07-23T10:08:58;23.10;99.90
17128;DHT22;8679;50.842;4.322;2022-07-23T10:11:27;23.30;99.90
17128;DHT22;8679;50.842;4.322;2022-07-23T10:13:53;23.50;99.90
17128;DHT22;8679;50.842;4.322;2022-07-23T10:16:27;23.60;99.90
17128;DHT22;8679;50.842;4.322;2022-07-23T10:18:52;23.60;99.90
17128;DHT22;8679;50.842;4.322;2022-07-23T10:21:27;23.70;99.90
17128;DHT22;8679;50.842;4.322;2022-07-23T10:29:52;23.70;99.90
17128;DHT22;8679;50.842;4.322;2022-07-23T10:38:10;23.60;99.90
17128;DHT22;8679;50.842;4.322;2022-07-23T10:40:37;23.60;99.90
17128;DHT22;8679;50.842;4.322;2022-07-23T10:43:13;23.60;99.90
17128;DHT22;8679;50.842;4.322;2022-07-23T10:45:40;23.60;99.90
17128;DHT22;8679;50.842;4.322;2022-07-23T10:48:19;23.70;99.90
17128;DHT22;8679;50.842;4.322;2022-07-23T10:59:15;24.80;99.90
17128;DHT22;8679;50.842;4.322;2022-07-23T11:01:41;24.90;99.90
17128;DHT22;8679;50.842;4.322;2022-07-23T11:04:07;25.00;99.90
17128;DHT22;8679;50.842;4.322;2022-07-23T11:09:38;25.30;99.90
17128;DHT22;8679;50.842;4.322;2022-07-23T11:22:48;25.90;99.90
17128;DHT22;8679;50.842;4.322;2022-07-23T11:25:35;26.10;99.90
17128;DHT22;8679;50.842;4.322;2022-07-23T11:28:17;26.30;99.90
17128;DHT22;8679;50.842;4.322;2022-07-23T11:30:47;26.40;99.90
17128;DHT22;8679;50.842;4.322;2022-07-23T11:35:44;26.40;99.90
17128;DHT22;8679;50.842;4.322;2022-07-23T11:38:19;26.10;99.90
17128;DHT22;8679;50.842;4.322;2022-07-23T11:40:50;25.90;99.90
17128;DHT22;8679;50.842;4.322;2022-07-23T11:43:17;25.80;99.90
17128;DHT22;8679;50.842;4.322;2022-07-23T11:45:46;26.00;99.90
17128;DHT22;8679;50.842;4.322;2022-07-23T11:48:18;26.10;99.90
17128;DHT22;8679;50.842;4.322;2022-07-23T11:50:44;26.30;99.90
17128;DHT22;8679;50.842;4.322;2022-07-23T11:53:10;26.60;99.90
17128;DHT22;8679;50.842;4.322;2022-07-23T11:55:35;26.70;99.90
17128;DHT22;8679;50.842;4.322;2022-07-23T11:58:01;26.90;99.90
17128;DHT22;8679;50.842;4.322;2022-07-23T12:00:31;27.20;99.90
17128;DHT22;8679;50.842;4.322;2022-07-23T12:03:01;27.10;99.90
17128;DHT22;8679;50.842;4.322;2022-07-23T12:05:30;27.10;99.90
17128;DHT22;8679;50.842;4.322;2022-07-23T12:07:57;27.30;99.90
17128;DHT22;8679;50.842;4.322;2022-07-23T12:10:27;27.40;99.90
17128;DHT22;8679;50.842;4.322;2022-07-23T12:12:54;27.20;99.90
17128;DHT22;8679;50.842;4.322;2022-07-23T12:18:00;27.10;99.90
17128;DHT22;8679;50.842;4.322;2022-07-23T12:20:29;26.90;99.90
17128;DHT22;8679;50.842;4.322;2022-07-23T12:22:58;27.00;99.90
17128;DHT22;8679;50.842;4.322;2022-07-23T12:25:28;27.30;99.90
17128;DHT22;8679;50.842;4.322;2022-07-23T12:30:33;26.80;99.90
17128;DHT22;8679;50.842;4.322;2022-07-23T12:33:00;26.60;99.90
17128;DHT22;8679;50.842;4.322;2022-07-23T12:35:43;27.00;99.90
17128;DHT22;8679;50.842;4.322;2022-07-23T12:38:12;27.30;99.90
17128;DHT22;8679;50.842;4.322;2022-07-23T12:40:48;27.40;99.90
17128;DHT22;8679;50.842;4.322;2022-07-23T12:43:21;27.90;99.90
17128;DHT22;8679;50.842;4.322;2022-07-23T12:46:06;28.20;99.90
17128;DHT22;8679;50.842;4.322;2022-07-23T12:48:35;27.70;99.90
17128;DHT22;8679;50.842;4.322;2022-07-23T12:51:12;27.60;99.90
17128;DHT22;8679;50.842;4.322;2022-07-23T12:53:42;27.80;99.90
17128;DHT22;8679;50.842;4.322;2022-07-23T12:56:13;28.00;99.90
17128;DHT22;8679;50.842;4.322;2022-07-23T12:58:53;28.30;99.90
17128;DHT22;8679;50.842;4.322;2022-07-23T13:06:25;29.10;99.90
17128;DHT22;8679;50.842;4.322;2022-07-23T13:08:51;29.00;99.90
17128;DHT22;8679;50.842;4.322;2022-07-23T13:11:17;28.40;99.90
17128;DHT22;8679;50.842;4.322;2022-07-23T13:13:42;28.00;99.90
17128;DHT22;8679;50.842;4.322;2022-07-23T13:16:08;28.10;99.90
17128;DHT22;8679;50.842;4.322;2022-07-23T13:18:34;28.60;99.90
17128;DHT22;8679;50.842;4.322;2022-07-23T13:21:02;29.10;99.90
17128;DHT22;8679;50.842;4.322;2022-07-23T13:23:28;29.10;99.90
17128;DHT22;8679;50.842;4.322;2022-07-23T13:25:54;30.00;99.90
17128;DHT22;8679;50.842;4.322;2022-07-23T13:28:21;30.20;99.90
17128;DHT22;8679;50.842;4.322;2022-07-23T13:30:48;29.70;99.90
17128;DHT22;8679;50.842;4.322;2022-07-23T13:33:19;29.50;99.90
17128;DHT22;8679;50.842;4.322;2022-07-23T13:35:46;29.70;99.90
17128;DHT22;8679;50.842;4.322;2022-07-23T13:38:12;30.30;99.90
17128;DHT22;8679;50.842;4.322;2022-07-23T13:40:40;31.10;99.90
17128;DHT22;8679;50.842;4.322;2022-07-23T13:43:08;31.80;98.60
17128;DHT22;8679;50.842;4.322;2022-07-23T13:45:34;31.30;94.50
17128;DHT22;8679;50.842;4.322;2022-07-23T13:48:01;31.60;95.20
17128;DHT22;8679;50.842;4.322;2022-07-23T13:50:27;31.90;93.50
17128;DHT22;8679;50.842;4.322;2022-07-23T13:52:53;32.10;91.20
17128;DHT22;8679;50.842;4.322;2022-07-23T13:55:18;32.20;91.90
17128;DHT22;8679;50.842;4.322;2022-07-23T13:57:44;31.90;90.10
17128;DHT22;8679;50.842;4.322;2022-07-23T14:00:11;32.10;90.90
17128;DHT22;8679;50.842;4.322;2022-07-23T14:02:38;32.20;89.80
17128;DHT22;8679;50.842;4.322;2022-07-23T14:05:05;32.80;90.70
17128;DHT22;8679;50.842;4.322;2022-07-23T14:07:31;33.30;88.90
17128;DHT22;8679;50.842;4.322;2022-07-23T14:09:57;33.40;79.50
17128;DHT22;8679;50.842;4.322;2022-07-23T14:12:23;32.10;79.10
17128;DHT22;8679;50.842;4.322;2022-07-23T14:14:48;31.10;81.50
17128;DHT22;8679;50.842;4.322;2022-07-23T14:17:14;30.00;86.60
17128;DHT22;8679;50.842;4.322;2022-07-23T14:19:40;29.50;91.10
17128;DHT22;8679;50.842;4.322;2022-07-23T14:22:06;29.90;92.10
17128;DHT22;8679;50.842;4.322;2022-07-23T14:24:31;30.30;90.90
17128;DHT22;8679;50.842;4.322;2022-07-23T14:26:59;29.80;91.00
17128;DHT22;8679;50.842;4.322;2022-07-23T14:29:25;30.40;90.70
17128;DHT22;8679;50.842;4.322;2022-07-23T14:31:51;30.70;90.10
17128;DHT22;8679;50.842;4.322;2022-07-23T14:34:17;30.70;88.80
17128;DHT22;8679;50.842;4.322;2022-07-23T14:36:43;31.00;87.70
17128;DHT22;8679;50.842;4.322;2022-07-23T14:39:08;31.20;87.40
17128;DHT22;8679;50.842;4.322;2022-07-23T14:41:35;31.30;86.60
17128;DHT22;8679;50.842;4.322;2022-07-23T14:44:02;31.90;87.80
17128;DHT22;8679;50.842;4.322;2022-07-23T14:46:28;32.40;83.50
17128;DHT22;8679;50.842;4.322;2022-07-23T14:48:54;32.40;81.60
17128;DHT22;8679;50.842;4.322;2022-07-23T14:51:19;32.30;80.30
17128;DHT22;8679;50.842;4.322;2022-07-23T14:53:45;32.50;79.10
17128;DHT22;8679;50.842;4.322;2022-07-23T14:56:11;33.00;76.50
17128;DHT22;8679;50.842;4.322;2022-07-23T14:58:39;33.50;73.40
17128;DHT22;8679;50.842;4.322;2022-07-23T15:01:05;34.00;75.40
17128;DHT22;8679;50.842;4.322;2022-07-23T15:03:30;34.30;67.20
17128;DHT22;8679;50.842;4.322;2022-07-23T15:05:56;34.10;60.00
17128;DHT22;8679;50.842;4.322;2022-07-23T15:08:22;33.90;60.60
17128;DHT22;8679;50.842;4.322;2022-07-23T15:10:51;34.20;58.60
17128;DHT22;8679;50.842;4.322;2022-07-23T15:13:17;33.90;58.20
17128;DHT22;8679;50.842;4.322;2022-07-23T15:15:43;33.90;57.10
17128;DHT22;8679;50.842;4.322;2022-07-23T15:18:10;34.60;56.00
17128;DHT22;8679;50.842;4.322;2022-07-23T15:20:35;35.40;53.70
17128;DHT22;8679;50.842;4.322;2022-07-23T15:23:03;35.50;52.10
17128;DHT22;8679;50.842;4.322;2022-07-23T15:25:29;36.20;50.60
17128;DHT22;8679;50.842;4.322;2022-07-23T15:27:57;37.30;46.40
17128;DHT22;8679;50.842;4.322;2022-07-23T15:30:24;37.00;43.10
17128;DHT22;8679;50.842;4.322;2022-07-23T15:32:50;35.50;44.50
17128;DHT22;8679;50.842;4.322;2022-07-23T15:35:16;35.10;47.60
17128;DHT22;8679;50.842;4.322;2022-07-23T15:37:42;35.90;47.40
17128;DHT22;8679;50.842;4.322;2022-07-23T15:40:09;37.10;43.40
17128;DHT22;8679;50.842;4.322;2022-07-23T15:42:34;37.30;41.40
17128;DHT22;8679;50.842;4.322;2022-07-23T15:45:00;37.90;40.80
17128;DHT22;8679;50.842;4.322;2022-07-23T15:47:26;37.10;40.20
17128;DHT22;8679;50.842;4.322;2022-07-23T15:49:52;36.30;39.40
17128;DHT22;8679;50.842;4.322;2022-07-23T15:52:17;35.50;39.60
17128;DHT22;8679;50.842;4.322;2022-07-23T15:54:43;34.00;40.90
17128;DHT22;8679;50.842;4.322;2022-07-23T15:57:09;32.80;43.60
17128;DHT22;8679;50.842;4.322;2022-07-23T15:59:35;32.10;46.90
17128;DHT22;8679;50.842;4.322;2022-07-23T16:02:01;32.00;48.50
17128;DHT22;8679;50.842;4.322;2022-07-23T16:04:26;33.10;48.40
17128;DHT22;8679;50.842;4.322;2022-07-23T16:06:52;34.20;46.00
17128;DHT22;8679;50.842;4.322;2022-07-23T16:09:18;35.60;43.40
17128;DHT22;8679;50.842;4.322;2022-07-23T16:11:43;36.80;40.80
17128;DHT22;8679;50.842;4.322;2022-07-23T16:14:09;37.90;36.50
17128;DHT22;8679;50.842;4.322;2022-07-23T16:16:35;38.30;34.20
17128;DHT22;8679;50.842;4.322;2022-07-23T16:19:01;37.90;33.10
17128;DHT22;8679;50.842;4.322;2022-07-23T16:21:27;38.20;33.00
17128;DHT22;8679;50.842;4.322;2022-07-23T16:23:53;38.90;31.10
17128;DHT22;8679;50.842;4.322;2022-07-23T16:26:19;38.90;29.50
17128;DHT22;8679;50.842;4.322;2022-07-23T16:28:48;38.90;29.60
17128;DHT22;8679;50.842;4.322;2022-07-23T16:31:14;39.20;28.70
17128;DHT22;8679;50.842;4.322;2022-07-23T16:33:40;39.20;27.70